Página principal
METAR-TAF:

METAR-TAF

Aeroportos :

Aeroporto Internacional de Volgogrado

Volgogrado, Rússia

latitude: 48-47N, longitude: 044-22E, altura: 145 m

Observação actual do tempo

O boletim foi feito há 19 minutos, às 10:30 UTC
Vento 14 kt de es-nordeste
Temperatura 33°C
Humidade 28%
Pressão 1018 hPa
Visibilidade 10 km ou mais
sem nuvens abaixo de 1500 metros e sem cumulonimbus

METAR: URWW 231030Z 07007MPS CAVOK 33/12 Q1018 R06/010070 NOSIG

Hora: 13:49 (10:49 UTC)

Previsão

O boletim foi feito há 2 horas e 52 minutos, às 07:57 UTC
Previsão válida de 23 às 09 UTC a 23 às 18 UTC
Vento 12 kt de es-nordeste com rajadas de 23 kt
Visibilidade 10 km ou mais
sem nuvens abaixo de 1500 metros e sem cumulonimbus
Temporariamente
de 23 às 09 UTC a 23 às 15 UTC
Vento 14 kt de nordeste com rajadas de 29 kt
Tornando-se
de 23 às 15 UTC a 23 às 17 UTC
Vento 10 kt de nordeste com rajadas de 23 kt

TAF: URWW 230757Z 2309/2318 07006G12MPS CAVOK TEMPO 2309/2315 05007G15MPS BECMG 2315/2317 04005G12MPS

Observações e previsões do tempo de mais de 4000 aeroportos (mensagens METAR e TAF).

As estações disponíveis são os pontos amarelos e vermelhos sobre o mapa.

Mova o rato sobre o mapa para ver o nome da estação.

Depois clique no ponto para visualizar as observações e previsões meteorológicas.

Para alterar o mapa : clique nos botões verdes com uma cruz preta para aumentar o zoom; no botão verde com uma pitada de zoom; ou nas setas verdes para mapas adjacentes.


METAR-TAF: